Time;durP1;ratioP1;P1;durP2;ratioP2;P2;SDS_P1;SDS_P2;PMS_P1;PMS_P2;Temp;Humidity;BMP_temperature;BMP_pressure;BME280_temperature;BME280_humidity;BME280_pressure;Samples;Min_cycle;Max_cycle;Signal;HPM_P1;HPM_P2
2021/08/23 00:00:43;;;;;;;4.30;3.60;;;22.10;88.20;;;;;;5043992;28;20913;-45
2021/08/23 00:03:14;;;;;;;4.30;3.13;;;21.90;88.50;;;;;;5061413;28;20442;-44
2021/08/23 00:05:45;;;;;;;3.30;3.00;;;22.00;89.20;;;;;;5061623;28;20737;-44
2021/08/23 00:08:16;;;;;;;4.40;3.20;;;21.90;88.80;;;;;;5060851;28;20456;-41
2021/08/23 00:10:47;;;;;;;4.30;3.30;;;21.70;88.50;;;;;;5045346;28;20432;-50
2021/08/23 00:13:20;;;;;;;3.93;3.40;;;21.70;87.50;;;;;;5044381;28;20431;-49
2021/08/23 00:15:54;;;;;;;4.37;3.70;;;21.60;88.20;;;;;;5054069;28;20493;-45
2021/08/23 00:18:28;;;;;;;4.37;2.87;;;21.50;88.10;;;;;;5041969;28;20825;-44
2021/08/23 00:21:02;;;;;;;4.63;3.10;;;21.40;89.00;;;;;;5058099;28;20459;-43
2021/08/23 00:23:36;;;;;;;4.33;3.63;;;21.40;88.60;;;;;;5060628;28;20449;-51
2021/08/23 00:26:23;;;;;;;3.87;3.17;;;21.30;90.10;;;;;;5060469;28;20452;-49
2021/08/23 00:28:56;;;;;;;4.33;3.83;;;21.30;89.00;;;;;;5045990;28;20428;-43
2021/08/23 00:31:27;;;;;;;4.73;3.17;;;21.30;87.70;;;;;;5040007;28;20452;-40
2021/08/23 00:33:58;;;;;;;5.83;3.67;;;21.20;90.10;;;;;;5041534;28;20514;-42
2021/08/23 00:36:29;;;;;;;4.20;3.17;;;21.10;89.10;;;;;;5041442;28;20477;-45
2021/08/23 00:39:00;;;;;;;4.57;3.50;;;21.10;88.70;;;;;;5040863;28;20483;-46
2021/08/23 00:41:32;;;;;;;4.50;3.37;;;20.90;90.30;;;;;;5056959;28;20948;-44
2021/08/23 00:44:05;;;;;;;3.13;2.83;;;21.10;89.90;;;;;;5048134;28;20488;-44
2021/08/23 00:46:37;;;;;;;4.90;3.50;;;21.00;89.70;;;;;;5060997;28;20452;-42
2021/08/23 00:49:08;;;;;;;4.80;3.70;;;21.10;89.00;;;;;;5041833;28;20780;-43
2021/08/23 00:51:39;;;;;;;4.13;3.60;;;20.90;88.90;;;;;;5025499;28;20442;-45
2021/08/23 00:54:10;;;;;;;4.20;3.80;;;20.70;90.30;;;;;;5047758;28;20453;-43
2021/08/23 00:56:41;;;;;;;4.17;3.70;;;20.60;90.20;;;;;;5060351;28;20466;-40
2021/08/23 00:59:13;;;;;;;5.13;4.63;;;20.60;90.80;;;;;;5045276;28;20601;-41
2021/08/23 01:01:53;;;;;;;6.33;4.73;;;20.50;90.60;;;;;;5042168;28;20449;-43
2021/08/23 01:04:34;;;;;;;6.13;4.47;;;20.40;90.90;;;;;;5040976;28;20420;-39
2021/08/23 01:07:09;;;;;;;3.97;3.57;;;20.20;91.00;;;;;;5054973;28;20419;-41
2021/08/23 01:09:44;;;;;;;5.40;4.20;;;20.20;90.20;;;;;;5059920;28;20796;-43
2021/08/23 01:12:16;;;;;;;5.03;4.23;;;20.10;90.60;;;;;;5054011;28;20445;-42
2021/08/23 01:14:49;;;;;;;5.37;4.07;;;20.00;91.10;;;;;;5051563;28;20448;-40
2021/08/23 01:17:20;;;;;;;5.63;3.97;;;20.10;91.10;;;;;;5060457;28;20478;-43
2021/08/23 01:20:11;;;;;;;5.40;4.20;;;20.10;90.20;;;;;;5057289;28;20516;-44
2021/08/23 01:22:46;;;;;;;5.50;4.17;;;20.10;90.60;;;;;;5059544;28;20441;-40
2021/08/23 01:25:20;;;;;;;4.27;3.47;;;20.10;90.50;;;;;;5061133;28;20465;-41
2021/08/23 01:28:07;;;;;;;6.67;4.00;;;20.10;90.70;;;;;;5047999;28;20909;-41
2021/08/23 01:30:48;;;;;;;5.90;4.43;;;20.00;90.40;;;;;;5046909;28;20448;-41
2021/08/23 01:33:21;;;;;;;5.30;4.10;;;20.00;90.40;;;;;;5043993;28;20509;-40
2021/08/23 01:35:52;;;;;;;5.97;4.43;;;19.90;90.10;;;;;;5040778;28;20467;-40
2021/08/23 01:38:23;;;;;;;5.80;4.10;;;19.80;90.30;;;;;;5041568;28;20475;-40
2021/08/23 01:41:01;;;;;;;5.83;4.33;;;19.80;90.10;;;;;;5052576;28;20416;-39
2021/08/23 01:43:32;;;;;;;5.80;4.50;;;19.70;90.80;;;;;;5040981;28;20561;-40
2021/08/23 01:46:03;;;;;;;5.70;3.60;;;19.60;91.30;;;;;;5044437;28;20512;-39
2021/08/23 01:48:36;;;;;;;6.37;4.80;;;19.70;91.40;;;;;;5060396;28;20448;-43
2021/08/23 01:51:07;;;;;;;5.83;4.43;;;19.70;91.30;;;;;;5052035;28;20460;-40
2021/08/23 01:53:37;;;;;;;5.73;4.73;;;19.70;91.30;;;;;;5040196;28;20436;-41
2021/08/23 01:56:08;;;;;;;6.00;4.43;;;19.80;91.10;;;;;;5056139;28;20419;-39
2021/08/23 01:58:39;;;;;;;5.53;4.80;;;19.60;91.10;;;;;;5028768;28;20479;-44
2021/08/23 02:01:10;;;;;;;5.60;4.87;;;19.60;91.30;;;;;;5052130;28;20450;-41
2021/08/23 02:03:43;;;;;;;5.80;4.80;;;19.60;91.50;;;;;;5040008;28;20478;-40
2021/08/23 02:06:14;;;;;;;14.80;13.60;;;19.50;91.50;;;;;;5040751;28;20454;-48
2021/08/23 02:08:45;;;;;;;14.03;12.83;;;19.50;90.80;;;;;;5059340;28;20448;-44
2021/08/23 02:11:16;;;;;;;5.57;5.07;;;19.60;90.40;;;;;;5045432;28;20475;-47
2021/08/23 02:13:47;;;;;;;4.90;4.40;;;19.60;90.80;;;;;;5040492;28;20600;-43
2021/08/23 02:16:18;;;;;;;6.27;4.97;;;19.50;90.60;;;;;;5056084;28;21860;-45
2021/08/23 02:18:51;;;;;;;5.63;4.30;;;19.40;90.60;;;;;;5044202;28;20476;-48
2021/08/23 02:21:24;;;;;;;5.63;4.30;;;19.50;90.20;;;;;;5049219;28;20850;-46
2021/08/23 02:23:55;;;;;;;5.13;3.97;;;19.40;90.50;;;;;;5053634;28;20829;-49
2021/08/23 02:26:26;;;;;;;4.57;3.73;;;19.30;90.80;;;;;;5058427;28;20455;-42
2021/08/23 02:28:57;;;;;;;4.77;3.50;;;19.40;90.40;;;;;;5054282;28;20446;-46
2021/08/23 02:31:28;;;;;;;4.73;3.67;;;19.20;90.70;;;;;;5059538;28;20471;-47
2021/08/23 02:34:00;;;;;;;5.70;4.60;;;19.20;90.60;;;;;;5059414;28;20598;-49
2021/08/23 02:36:31;;;;;;;5.73;4.27;;;19.10;89.20;;;;;;5056415;28;20457;-48
2021/08/23 02:39:02;;;;;;;4.03;3.57;;;19.10;88.70;;;;;;5044702;28;20541;-45
2021/08/23 02:41:33;;;;;;;4.27;3.60;;;19.00;89.20;;;;;;5058721;28;20509;-50
2021/08/23 02:44:04;;;;;;;7.20;3.77;;;18.90;90.00;;;;;;5045169;28;20442;-44
2021/08/23 02:46:35;;;;;;;4.47;3.57;;;18.90;88.60;;;;;;5040594;28;20474;-49
2021/08/23 02:49:08;;;;;;;5.97;4.20;;;18.70;89.90;;;;;;5036665;28;20468;-48
2021/08/23 02:51:39;;;;;;;4.87;3.80;;;18.70;90.80;;;;;;5039742;28;20480;-44
2021/08/23 02:54:10;;;;;;;10.23;3.60;;;18.70;90.50;;;;;;5039073;28;20461;-49
2021/08/23 02:56:41;;;;;;;4.77;4.27;;;18.70;90.40;;;;;;5040315;28;20503;-47
2021/08/23 02:59:12;;;;;;;4.83;3.47;;;18.60;91.00;;;;;;5053271;28;20817;-43
2021/08/23 03:01:43;;;;;;;4.43;3.70;;;18.60;90.20;;;;;;5049122;28;20548;-50
2021/08/23 03:04:16;;;;;;;5.20;3.90;;;18.50;90.70;;;;;;5059024;28;20423;-50
2021/08/23 03:06:47;;;;;;;6.27;4.97;;;18.40;91.60;;;;;;5058168;28;20423;-48
2021/08/23 03:09:18;;;;;;;5.97;4.20;;;18.30;91.70;;;;;;5058458;28;20505;-47
2021/08/23 03:11:49;;;;;;;5.67;3.90;;;18.20;92.00;;;;;;5048610;28;20466;-42
2021/08/23 03:14:20;;;;;;;7.73;3.90;;;18.20;92.40;;;;;;5039435;28;20442;-41
2021/08/23 03:16:51;;;;;;;6.47;4.40;;;18.10;92.80;;;;;;5057940;28;20463;-43
2021/08/23 03:19:24;;;;;;;4.10;3.70;;;18.00;93.30;;;;;;5056388;28;20919;-45
2021/08/23 03:21:55;;;;;;;5.80;4.37;;;17.80;93.90;;;;;;5042692;28;20923;-46
2021/08/23 03:24:26;;;;;;;5.80;4.80;;;17.60;94.40;;;;;;5055977;28;20484;-49
2021/08/23 03:26:57;;;;;;;6.33;4.40;;;17.60;94.50;;;;;;5061548;28;20444;-43
2021/08/23 03:29:29;;;;;;;5.53;3.93;;;17.60;94.90;;;;;;5060200;28;20586;-47
2021/08/23 03:32:00;;;;;;;4.10;3.70;;;17.50;95.10;;;;;;5048002;28;20496;-45
2021/08/23 03:34:32;;;;;;;7.13;4.80;;;17.50;95.40;;;;;;5042205;28;20802;-47
2021/08/23 03:37:03;;;;;;;6.80;4.60;;;17.50;95.20;;;;;;5042322;28;20481;-44
2021/08/23 03:39:34;;;;;;;7.77;4.50;;;17.40;95.70;;;;;;5042255;28;20560;-44
2021/08/23 03:42:05;;;;;;;5.63;4.30;;;17.30;95.80;;;;;;5056192;28;20453;-44
2021/08/23 03:44:36;;;;;;;6.33;4.70;;;17.30;96.20;;;;;;5060403;28;20484;-47
2021/08/23 03:47:07;;;;;;;7.00;5.73;;;17.20;96.10;;;;;;5042581;28;20481;-45
2021/08/23 03:49:40;;;;;;;5.53;4.40;;;17.20;95.90;;;;;;5042156;28;20460;-45
2021/08/23 03:52:11;;;;;;;6.47;4.57;;;17.10;96.30;;;;;;5042280;28;20572;-46
2021/08/23 03:54:42;;;;;;;5.80;5.00;;;17.00;96.70;;;;;;5059225;28;20477;-42
2021/08/23 03:57:13;;;;;;;6.10;4.60;;;16.90;97.00;;;;;;5062100;28;20441;-42
2021/08/23 03:59:44;;;;;;;6.50;5.00;;;16.80;97.00;;;;;;5051549;28;20537;-45
2021/08/23 04:02:15;;;;;;;6.37;4.87;;;16.70;97.10;;;;;;5042285;28;20462;-45
2021/08/23 04:04:48;;;;;;;7.03;4.60;;;16.60;97.40;;;;;;5057577;28;20460;-42
2021/08/23 04:07:18;;;;;;;7.00;5.30;;;16.50;98.00;;;;;;5027934;28;20457;-41
2021/08/23 04:09:50;;;;;;;5.23;4.30;;;16.40;98.80;;;;;;5040915;28;20478;-46
2021/08/23 04:12:20;;;;;;;5.37;4.43;;;16.40;98.50;;;;;;5041929;28;20477;-42
2021/08/23 04:14:51;;;;;;;5.70;4.40;;;16.40;98.50;;;;;;5043629;28;20487;-42
2021/08/23 04:17:22;;;;;;;6.30;4.40;;;16.20;98.80;;;;;;5057084;28;20487;-43
2021/08/23 04:20:14;;;;;;;6.33;4.53;;;16.10;99.10;;;;;;5057925;28;20571;-48
2021/08/23 04:22:45;;;;;;;7.17;4.87;;;16.10;99.20;;;;;;5044396;28;20482;-39
2021/08/23 04:25:16;;;;;;;8.93;4.87;;;16.00;99.80;;;;;;5055753;28;20449;-43
2021/08/23 04:27:47;;;;;;;6.50;4.53;;;15.90;99.90;;;;;;5040707;28;20788;-42
2021/08/23 04:30:19;;;;;;;7.03;4.90;;;15.80;99.90;;;;;;5041564;28;20473;-42
2021/08/23 04:32:51;;;;;;;6.23;4.87;;;15.80;99.90;;;;;;5041616;28;20453;-42
2021/08/23 04:35:23;;;;;;;5.90;4.80;;;15.80;99.90;;;;;;5030389;28;20476;-43
2021/08/23 04:37:54;;;;;;;5.47;4.43;;;15.70;99.90;;;;;;5060253;28;20484;-41
2021/08/23 04:40:25;;;;;;;7.90;5.03;;;15.60;99.90;;;;;;5060996;28;20480;-45
2021/08/23 04:42:56;;;;;;;6.80;5.80;;;15.50;99.90;;;;;;5043449;28;20475;-42
2021/08/23 04:45:27;;;;;;;9.10;5.70;;;15.50;99.90;;;;;;5029517;28;20479;-41
2021/08/23 04:47:58;;;;;;;6.13;5.33;;;15.30;99.90;;;;;;5053209;28;20465;-46
2021/08/23 04:50:31;;;;;;;10.50;6.33;;;15.20;99.90;;;;;;5034604;28;20465;-42
2021/08/23 04:53:02;;;;;;;7.33;4.97;;;15.20;99.90;;;;;;5040724;28;20454;-43
2021/08/23 04:55:33;;;;;;;7.87;5.27;;;15.00;99.90;;;;;;5045335;28;20835;-41
2021/08/23 04:58:04;;;;;;;8.47;5.87;;;15.00;99.90;;;;;;5060788;28;20432;-44
2021/08/23 05:00:35;;;;;;;8.40;5.80;;;15.00;99.90;;;;;;5043816;28;20593;-39
2021/08/23 05:03:09;;;;;;;6.30;5.27;;;15.00;99.90;;;;;;5058156;28;20457;-39
2021/08/23 05:05:43;;;;;;;8.57;5.80;;;15.00;99.90;;;;;;5059195;28;20445;-45
2021/08/23 05:08:14;;;;;;;5.77;5.20;;;14.90;99.90;;;;;;5060278;28;20593;-43
2021/08/23 05:10:45;;;;;;;7.80;5.57;;;14.90;99.90;;;;;;5061021;28;20436;-44
2021/08/23 05:13:17;;;;;;;9.17;5.70;;;14.90;99.90;;;;;;5043448;28;20452;-43
2021/08/23 05:15:48;;;;;;;8.50;4.90;;;14.80;99.90;;;;;;5029537;28;20483;-45
2021/08/23 05:18:18;;;;;;;9.53;6.03;;;14.70;99.90;;;;;;5040748;28;20896;-41
2021/08/23 05:20:52;;;;;;;7.90;5.50;;;14.80;99.90;;;;;;5040547;28;20488;-47
2021/08/23 05:23:23;;;;;;;8.63;4.90;;;14.70;99.90;;;;;;5044933;28;20498;-43
2021/08/23 05:25:54;;;;;;;9.40;5.50;;;14.60;99.90;;;;;;5060341;28;20509;-43
2021/08/23 05:28:26;;;;;;;9.23;5.93;;;14.60;99.90;;;;;;5060790;28;20444;-44
2021/08/23 05:30:57;;;;;;;7.00;5.20;;;14.60;99.90;;;;;;5044208;28;20456;-49
2021/08/23 05:33:28;;;;;;;7.17;5.60;;;14.50;99.90;;;;;;5041004;28;20538;-46
2021/08/23 05:36:00;;;;;;;7.83;6.40;;;14.40;99.90;;;;;;5040925;28;20458;-42
2021/08/23 05:38:32;;;;;;;9.03;5.90;;;14.40;99.90;;;;;;5053533;28;20513;-45
2021/08/23 05:41:03;;;;;;;7.60;5.83;;;14.40;99.90;;;;;;5039854;28;20932;-45
2021/08/23 05:43:34;;;;;;;9.00;6.20;;;14.30;99.90;;;;;;5047214;28;20460;-48
2021/08/23 05:46:05;;;;;;;6.33;4.90;;;14.30;99.90;;;;;;5049985;28;20464;-47
2021/08/23 05:48:36;;;;;;;7.77;5.33;;;14.20;99.90;;;;;;5040692;28;20475;-45
2021/08/23 05:51:10;;;;;;;8.37;6.10;;;14.20;99.90;;;;;;5057906;28;20504;-47
2021/08/23 05:53:41;;;;;;;7.20;6.13;;;14.10;99.90;;;;;;5059316;28;20475;-46
2021/08/23 05:56:12;;;;;;;7.60;5.50;;;14.10;99.90;;;;;;5059798;28;20445;-43
2021/08/23 05:58:43;;;;;;;9.07;5.90;;;14.00;99.90;;;;;;5058559;28;20790;-48
2021/08/23 06:01:14;;;;;;;6.83;5.10;;;14.00;99.90;;;;;;5053501;28;20492;-45
2021/08/23 06:03:46;;;;;;;10.97;5.60;;;13.90;99.90;;;;;;5043198;28;20453;-45
2021/08/23 06:06:18;;;;;;;7.07;5.83;;;13.80;99.90;;;;;;5040363;28;20453;-49
2021/08/23 06:08:49;;;;;;;7.93;5.47;;;13.70;99.90;;;;;;5039831;28;20454;-47
2021/08/23 06:11:20;;;;;;;6.93;5.33;;;13.60;99.90;;;;;;5052320;28;20485;-45
2021/08/23 06:13:51;;;;;;;8.63;5.57;;;13.60;99.90;;;;;;5057867;28;20445;-45
2021/08/23 06:16:22;;;;;;;8.90;5.63;;;13.50;99.90;;;;;;5040264;28;20464;-48
2021/08/23 06:18:53;;;;;;;11.90;7.13;;;13.50;99.90;;;;;;5048766;28;20453;-42
2021/08/23 06:21:26;;;;;;;9.90;6.00;;;13.40;99.90;;;;;;5059402;28;20492;-46
2021/08/23 06:23:58;;;;;;;7.87;5.70;;;13.40;99.90;;;;;;5040908;28;20457;-44
2021/08/23 06:26:29;;;;;;;12.20;7.40;;;13.40;99.90;;;;;;5040241;28;20461;-47
2021/08/23 06:29:00;;;;;;;14.60;7.33;;;13.40;99.90;;;;;;5049714;28;20446;-47
2021/08/23 06:31:31;;;;;;;8.20;7.00;;;13.30;99.90;;;;;;5058892;28;20460;-47
2021/08/23 06:34:02;;;;;;;9.17;7.83;;;13.20;99.90;;;;;;5059220;28;22120;-43
2021/08/23 06:36:36;;;;;;;7.67;6.07;;;13.20;99.90;;;;;;5059599;28;20525;-45
2021/08/23 06:39:07;;;;;;;7.00;6.03;;;13.10;99.90;;;;;;5047691;28;20902;-48
2021/08/23 06:41:38;;;;;;;9.70;5.77;;;13.10;99.90;;;;;;5039452;28;20545;-39
2021/08/23 06:44:12;;;;;;;10.40;6.83;;;13.00;99.90;;;;;;5027848;28;20493;-48
2021/08/23 06:46:43;;;;;;;9.33;6.20;;;13.00;99.90;;;;;;5059276;28;20575;-47
2021/08/23 06:49:14;;;;;;;9.23;6.77;;;12.80;99.90;;;;;;5038341;28;20459;-47
2021/08/23 06:51:47;;;;;;;7.60;5.90;;;12.90;99.90;;;;;;5054971;28;20460;-42
2021/08/23 06:54:19;;;;;;;11.20;6.90;;;12.80;99.90;;;;;;5042660;28;20592;-47
2021/08/23 06:56:50;;;;;;;9.07;7.50;;;12.70;99.90;;;;;;5060584;28;20497;-47
2021/08/23 06:59:21;;;;;;;9.77;6.27;;;12.60;99.90;;;;;;5057756;28;20544;-46
2021/08/23 07:01:52;;;;;;;9.80;5.67;;;12.60;99.90;;;;;;5051565;28;20480;-42
2021/08/23 07:04:23;;;;;;;8.20;5.77;;;12.60;99.90;;;;;;5062624;28;20493;-49
2021/08/23 07:06:56;;;;;;;6.90;6.10;;;12.40;99.90;;;;;;5044409;28;20524;-42
2021/08/23 07:09:27;;;;;;;9.70;7.00;;;12.40;99.90;;;;;;5042294;28;20448;-49
2021/08/23 07:11:58;;;;;;;8.27;6.57;;;12.50;99.90;;;;;;5032533;28;20445;-49
2021/08/23 07:14:29;;;;;;;7.00;6.17;;;12.50;99.90;;;;;;5056414;28;20505;-47
2021/08/23 07:17:00;;;;;;;10.82;6.38;;;12.50;99.90;;;;;;5043758;28;20449;-45
2021/08/23 07:19:31;;;;;;;9.13;6.40;;;12.50;99.90;;;;;;5042567;28;20199;-47
2021/08/23 07:22:25;;;;;;;10.77;6.77;;;12.50;99.90;;;;;;5053713;28;20608;-45
2021/08/23 07:24:56;;;;;;;9.37;6.70;;;12.40;99.90;;;;;;5045733;28;20453;-44
2021/08/23 07:27:27;;;;;;;9.40;6.60;;;12.30;99.90;;;;;;5026499;28;20486;-42
2021/08/23 07:29:58;;;;;;;9.67;6.83;;;12.20;99.90;;;;;;5042755;28;20290;-40
2021/08/23 07:32:29;;;;;;;7.80;6.55;;;12.10;99.90;;;;;;5043238;28;20457;-41
2021/08/23 07:35:00;;;;;;;7.00;6.20;;;12.10;99.90;;;;;;5042679;28;20206;-42
2021/08/23 07:37:37;;;;;;;9.48;6.05;;;12.10;99.90;;;;;;5035552;28;22112;-43
2021/08/23 07:40:09;;;;;;;8.20;6.00;;;12.20;99.90;;;;;;5062683;28;20597;-42
2021/08/23 07:42:40;;;;;;;8.97;6.17;;;12.20;99.90;;;;;;5048887;28;20509;-43
2021/08/23 07:45:14;;;;;;;7.65;5.70;;;12.10;99.90;;;;;;5042621;28;20484;-40
2021/08/23 07:47:45;;;;;;;11.87;7.20;;;12.10;99.90;;;;;;5026290;28;20304;-45
2021/08/23 07:50:17;;;;;;;9.23;7.18;;;12.00;99.90;;;;;;5042264;28;20453;-49
2021/08/23 07:52:49;;;;;;;8.73;6.13;;;12.00;99.90;;;;;;5041233;28;20233;-40
2021/08/23 07:55:20;;;;;;;10.95;6.28;;;11.90;99.90;;;;;;5042099;28;20211;-42
2021/08/23 07:57:51;;;;;;;11.63;6.45;;;12.00;99.90;;;;;;5026546;28;20239;-44
2021/08/23 08:00:24;;;;;;;9.73;6.60;;;11.90;99.90;;;;;;5042525;28;20715;-44
2021/08/23 08:02:55;;;;;;;9.05;5.95;;;11.80;99.90;;;;;;5054039;28;20499;-46
2021/08/23 08:05:26;;;;;;;9.10;6.25;;;11.80;99.90;;;;;;5061167;28;20651;-40
2021/08/23 08:07:59;;;;;;;9.02;6.18;;;11.80;99.90;;;;;;5028888;28;20261;-46
2021/08/23 08:10:30;;;;;;;9.88;6.85;;;11.70;99.90;;;;;;5045595;28;20355;-38
2021/08/23 08:13:01;;;;;;;10.45;7.00;;;11.70;99.90;;;;;;5038851;28;20659;-37
2021/08/23 08:15:32;;;;;;;10.95;6.30;;;11.60;99.90;;;;;;5042173;28;20233;-39
2021/08/23 08:18:03;;;;;;;8.63;7.20;;;11.60;99.90;;;;;;5045604;28;20194;-38
2021/08/23 08:20:35;;;;;;;8.57;7.20;;;11.60;99.90;;;;;;5058779;28;20230;-38
2021/08/23 08:23:08;;;;;;;13.60;7.35;;;11.60;99.90;;;;;;5060247;28;20241;-39
2021/08/23 08:25:39;;;;;;;8.00;6.15;;;11.60;99.90;;;;;;5059386;28;20206;-42
2021/08/23 08:28:10;;;;;;;9.93;8.10;;;11.50;99.90;;;;;;5060488;28;20627;-40
2021/08/23 08:30:43;;;;;;;9.25;7.15;;;11.50;99.90;;;;;;5055028;28;20206;-39
2021/08/23 08:33:15;;;;;;;9.05;6.63;;;11.50;99.90;;;;;;5041135;28;20213;-42
2021/08/23 08:35:45;;;;;;;9.60;7.70;;;11.40;99.90;;;;;;5041533;28;20202;-38
2021/08/23 08:38:18;;;;;;;12.82;8.00;;;11.30;99.90;;;;;;5040867;28;20316;-40
2021/08/23 08:40:51;;;;;;;10.55;8.40;;;11.30;99.90;;;;;;5041445;28;20195;-38
2021/08/23 08:43:23;;;;;;;12.45;6.55;;;11.30;99.90;;;;;;5053081;28;20249;-39
2021/08/23 08:45:54;;;;;;;8.50;7.07;;;11.20;99.90;;;;;;5061323;28;20273;-38
2021/08/23 08:48:27;;;;;;;11.77;7.20;;;11.20;99.90;;;;;;5044431;28;20202;-38
2021/08/23 08:50:58;;;;;;;13.93;8.32;;;11.10;99.90;;;;;;5053248;28;20207;-39
2021/08/23 08:53:31;;;;;;;9.82;6.63;;;11.20;99.90;;;;;;5052695;28;20202;-41
2021/08/23 08:56:04;;;;;;;13.10;6.82;;;11.10;99.90;;;;;;5060194;28;20198;-45
2021/08/23 08:58:36;;;;;;;8.65;6.97;;;11.00;99.90;;;;;;5026567;28;20202;-44
2021/08/23 09:01:07;;;;;;;7.88;6.50;;;11.10;99.90;;;;;;5059731;28;20223;-41
2021/08/23 09:03:46;;;;;;;10.27;6.95;;;11.10;99.90;;;;;;5060391;28;20243;-43
2021/08/23 09:06:17;;;;;;;9.02;6.72;;;11.00;99.90;;;;;;5060495;28;20206;-43
2021/08/23 09:08:49;;;;;;;11.25;6.25;;;10.90;99.90;;;;;;5060145;28;20342;-44
2021/08/23 09:11:21;;;;;;;8.75;6.82;;;10.90;99.90;;;;;;5051134;28;20246;-43
2021/08/23 09:14:00;;;;;;;7.95;6.78;;;10.80;99.90;;;;;;5053171;28;20325;-40
2021/08/23 09:16:33;;;;;;;9.48;6.75;;;10.90;99.90;;;;;;5058317;28;20253;-44
2021/08/23 09:19:04;;;;;;;10.23;6.57;;;10.80;99.90;;;;;;5040727;28;20195;-44
2021/08/23 09:21:38;;;;;;;9.98;6.45;;;10.80;99.90;;;;;;5040703;28;20235;-40
2021/08/23 09:24:19;;;;;;;7.07;6.35;;;10.60;99.90;;;;;;5040305;28;20237;-41
2021/08/23 09:26:50;;;;;;;11.30;7.22;;;10.70;99.90;;;;;;5040272;28;20220;-42
2021/08/23 09:29:21;;;;;;;9.48;6.47;;;10.70;99.90;;;;;;5051957;28;20267;-46
2021/08/23 09:32:00;;;;;;;9.05;6.93;;;10.60;99.90;;;;;;5060329;28;20229;-42
2021/08/23 09:34:31;;;;;;;10.20;6.63;;;10.60;99.90;;;;;;5038560;28;20182;-39
2021/08/23 09:37:02;;;;;;;8.48;6.30;;;10.50;99.90;;;;;;5040551;28;20217;-42
2021/08/23 09:39:35;;;;;;;8.68;6.00;;;10.50;99.90;;;;;;5050461;28;20202;-39
2021/08/23 09:42:09;;;;;;;7.78;6.50;;;10.60;99.90;;;;;;5059468;28;20205;-43
2021/08/23 09:44:40;;;;;;;10.00;7.00;;;10.60;99.90;;;;;;5059646;28;20284;-40
2021/08/23 09:47:12;;;;;;;13.15;7.32;;;10.60;99.90;;;;;;5060534;28;20198;-39
2021/08/23 09:49:44;;;;;;;7.57;6.20;;;10.60;99.90;;;;;;5049113;28;20343;-39
2021/08/23 09:52:22;;;;;;;10.68;6.97;;;10.60;99.90;;;;;;5042966;28;20214;-39
2021/08/23 09:55:04;;;;;;;12.02;6.60;;;10.50;99.90;;;;;;5059162;28;20230;-42
2021/08/23 09:57:37;;;;;;;11.43;6.70;;;10.50;99.90;;;;;;5059383;28;20202;-39
2021/08/23 10:00:13;;;;;;;8.50;5.60;;;10.40;99.90;;;;;;5058582;28;20209;-38
2021/08/23 10:02:46;;;;;;;9.45;6.88;;;10.40;99.90;;;;;;5039849;28;20227;-39
2021/08/23 10:05:19;;;;;;;10.63;7.28;;;10.40;99.90;;;;;;5050282;28;20258;-40
2021/08/23 10:07:50;;;;;;;10.00;7.15;;;10.40;99.90;;;;;;5049951;28;20202;-41
2021/08/23 10:10:24;;;;;;;11.23;7.60;;;10.40;99.90;;;;;;5058349;28;20232;-39
2021/08/23 10:12:55;;;;;;;9.25;5.82;;;10.40;99.90;;;;;;5058560;28;20277;-40
2021/08/23 10:15:26;;;;;;;12.23;6.00;;;10.30;99.90;;;;;;5059341;28;20245;-38
2021/08/23 10:17:57;;;;;;;9.80;6.32;;;10.30;99.90;;;;;;5059237;28;20269;-38
2021/08/23 10:20:29;;;;;;;7.45;6.22;;;10.20;99.90;;;;;;5059706;28;20222;-39
2021/08/23 10:23:03;;;;;;;11.10;6.90;;;10.20;99.90;;;;;;5041069;28;20203;-38
2021/08/23 10:25:36;;;;;;;9.88;6.55;;;10.20;99.90;;;;;;5042370;28;20194;-39
2021/08/23 10:28:09;;;;;;;8.50;6.10;;;10.20;99.90;;;;;;5048179;28;20198;-38
2021/08/23 10:30:40;;;;;;;8.57;6.25;;;10.20;99.90;;;;;;5046181;28;20202;-39
2021/08/23 10:33:16;;;;;;;9.25;6.40;;;10.20;99.90;;;;;;5039388;28;20217;-38
2021/08/23 10:35:52;;;;;;;10.93;6.88;;;10.10;99.90;;;;;;5045986;28;20495;-37
2021/08/23 10:38:26;;;;;;;10.77;6.63;;;10.10;99.90;;;;;;5059201;28;20228;-37
2021/08/23 10:41:09;;;;;;;9.35;6.72;;;10.10;99.90;;;;;;5059190;28;20283;-38
2021/08/23 10:43:48;;;;;;;10.57;6.50;;;10.10;99.90;;;;;;5058924;28;20276;-37
2021/08/23 10:46:23;;;;;;;9.32;5.80;;;10.10;99.90;;;;;;5049852;28;20263;-39
2021/08/23 10:48:55;;;;;;;8.68;6.35;;;10.10;99.90;;;;;;5053426;28;20243;-37
2021/08/23 10:51:31;;;;;;;11.90;6.30;;;10.00;99.90;;;;;;5040150;28;20587;-38
2021/08/23 10:54:02;;;;;;;9.52;6.82;;;10.00;99.90;;;;;;5039125;28;20210;-38
2021/08/23 10:56:40;;;;;;;12.05;6.82;;;9.90;99.90;;;;;;5039159;28;20207;-37
2021/08/23 10:59:16;;;;;;;10.75;6.70;;;9.90;99.90;;;;;;5039359;28;20226;-38
2021/08/23 11:01:57;;;;;;;12.85;6.88;;;9.80;99.90;;;;;;5033247;28;20193;-37
2021/08/23 11:04:33;;;;;;;13.07;7.07;;;9.80;99.90;;;;;;5058672;28;20233;-38
2021/08/23 11:07:05;;;;;;;10.40;6.93;;;9.90;99.90;;;;;;5042425;28;20206;-38
2021/08/23 11:09:39;;;;;;;11.27;6.80;;;9.90;99.90;;;;;;5042422;28;20190;-39
2021/08/23 11:12:16;;;;;;;10.80;6.70;;;9.90;99.90;;;;;;5049806;28;20223;-37
2021/08/23 11:14:52;;;;;;;7.70;6.30;;;9.80;99.90;;;;;;5038915;28;20238;-39
2021/08/23 11:17:31;;;;;;;10.45;6.90;;;9.70;99.90;;;;;;5058165;28;20233;-39
2021/08/23 11:20:09;;;;;;;10.82;7.22;;;9.70;99.90;;;;;;5058728;28;20221;-39
2021/08/23 11:22:40;;;;;;;11.77;6.20;;;9.70;99.90;;;;;;5045149;28;20207;-37
2021/08/23 11:25:12;;;;;;;7.53;5.82;;;9.70;99.90;;;;;;5054928;28;20277;-39
2021/08/23 11:27:52;;;;;;;11.13;5.85;;;9.70;99.90;;;;;;5043005;28;20209;-37
2021/08/23 11:30:30;;;;;;;12.15;6.05;;;9.60;99.90;;;;;;5058114;28;20202;-37
2021/08/23 11:33:01;;;;;;;10.40;7.13;;;9.60;99.90;;;;;;5058597;28;20258;-39
2021/08/23 11:35:33;;;;;;;11.85;6.20;;;9.60;99.90;;;;;;5058431;28;20198;-37
2021/08/23 11:38:06;;;;;;;9.38;6.93;;;9.60;99.90;;;;;;5044706;28;20199;-38
2021/08/23 11:40:38;;;;;;;13.15;6.43;;;9.60;99.90;;;;;;5042371;28;20260;-38
2021/08/23 11:43:11;;;;;;;9.30;5.70;;;9.60;99.90;;;;;;5041840;28;20234;-37
2021/08/23 11:45:44;;;;;;;10.48;7.30;;;9.50;99.90;;;;;;5045521;28;20222;-38
2021/08/23 11:48:15;;;;;;;7.50;5.90;;;9.50;99.90;;;;;;5061774;28;20223;-37
2021/08/23 11:50:46;;;;;;;11.45;6.25;;;9.40;99.90;;;;;;5062415;28;20350;-36
2021/08/23 11:53:18;;;;;;;11.48;6.70;;;9.50;99.90;;;;;;5061532;28;20190;-38
2021/08/23 11:55:50;;;;;;;11.50;7.00;;;9.40;99.90;;;;;;5026411;28;20290;-38
2021/08/23 11:58:24;;;;;;;9.52;6.50;;;9.40;99.90;;;;;;5041977;28;20242;-37
2021/08/23 12:01:02;;;;;;;10.68;6.78;;;9.40;99.90;;;;;;5058517;28;20225;-37
2021/08/23 12:03:33;;;;;;;11.57;7.13;;;9.30;99.90;;;;;;5042085;28;20209;-37
2021/08/23 12:06:05;;;;;;;9.88;6.90;;;9.40;99.90;;;;;;5053392;28;20210;-36
2021/08/23 12:08:38;;;;;;;11.30;7.25;;;9.40;99.90;;;;;;5061292;28;20214;-37
2021/08/23 12:11:14;;;;;;;10.55;7.10;;;9.40;99.90;;;;;;5025575;28;20199;-37
2021/08/23 12:13:48;;;;;;;9.80;6.70;;;9.30;99.90;;;;;;5049297;28;20278;-36
2021/08/23 12:16:20;;;;;;;11.65;7.40;;;9.30;99.90;;;;;;5060925;28;20201;-37
2021/08/23 12:18:53;;;;;;;8.90;6.50;;;9.20;99.90;;;;;;5044332;28;20234;-38
2021/08/23 12:21:30;;;;;;;10.02;7.60;;;9.30;99.90;;;;;;5060815;28;20233;-37
2021/08/23 12:24:02;;;;;;;9.57;6.53;;;9.20;99.90;;;;;;5061252;28;20212;-37
2021/08/23 12:26:38;;;;;;;12.05;6.57;;;9.20;99.90;;;;;;5037012;28;20223;-38
2021/08/23 12:29:18;;;;;;;7.97;5.80;;;9.20;99.90;;;;;;5040887;28;20210;-38
2021/08/23 12:31:51;;;;;;;11.93;6.88;;;9.10;99.90;;;;;;5051917;28;20228;-37
2021/08/23 12:34:23;;;;;;;10.05;5.97;;;9.20;99.90;;;;;;5049988;28;20337;-37
2021/08/23 12:36:54;;;;;;;16.33;6.90;;;9.20;99.90;;;;;;5041867;28;20199;-38
2021/08/23 12:39:26;;;;;;;11.57;7.65;;;9.20;99.90;;;;;;5025477;28;20296;-36
2021/08/23 12:41:58;;;;;;;11.38;7.30;;;9.20;99.90;;;;;;5041792;28;20298;-38
2021/08/23 12:44:31;;;;;;;13.18;8.15;;;9.20;99.90;;;;;;5041506;28;20262;-37
2021/08/23 12:47:02;;;;;;;8.63;6.95;;;9.20;99.90;;;;;;5060070;28;20528;-38
2021/08/23 12:49:34;;;;;;;10.23;6.85;;;9.20;99.90;;;;;;5054311;28;20279;-37
2021/08/23 12:52:05;;;;;;;11.38;6.55;;;9.10;99.90;;;;;;5041741;28;20195;-38
2021/08/23 12:54:36;;;;;;;10.60;6.60;;;9.20;99.90;;;;;;5041197;28;20218;-38
2021/08/23 12:57:08;;;;;;;9.50;6.68;;;9.20;99.90;;;;;;5041496;28;20202;-38
2021/08/23 12:59:40;;;;;;;12.18;8.27;;;9.10;99.90;;;;;;5043638;28;20272;-38
2021/08/23 13:02:20;;;;;;;8.95;6.38;;;9.20;99.90;;;;;;5055717;28;20201;-37
2021/08/23 13:04:51;;;;;;;12.85;6.90;;;9.20;99.90;;;;;;5060478;28;20230;-37
2021/08/23 13:07:22;;;;;;;11.40;6.78;;;9.10;99.90;;;;;;5054989;28;20656;-38
2021/08/23 13:09:53;;;;;;;8.70;6.63;;;9.00;99.90;;;;;;5050910;28;20194;-40
2021/08/23 13:12:24;;;;;;;12.77;7.20;;;9.10;99.90;;;;;;5046922;28;20241;-37